Time;durP1;ratioP1;P1;durP2;ratioP2;P2;SDS_P1;SDS_P2;PMS_P1;PMS_P2;Temp;Humidity;BMP_temperature;BMP_pressure;BME280_temperature;BME280_humidity;BME280_pressure;Samples;Min_cycle;Max_cycle;Signal;HPM_P1;HPM_P2
2022/07/22 00:02:09;;;;;;;8.80;6.10;;;;;;;;;;109605;1251;33348;-37
2022/07/22 00:04:59;;;;;;;8.30;5.70;;;;;;;;;;109553;1251;33738;-38
2022/07/22 00:07:50;;;;;;;9.60;5.70;;;;;;;;;;109609;1251;33775;-37
2022/07/22 00:10:42;;;;;;;9.50;6.10;;;;;;;;;;109602;1252;34162;-37
2022/07/22 00:13:14;;;;;;;8.10;6.00;;;;;;;;;;109591;1257;34411;-37
2022/07/22 00:15:49;;;;;;;9.20;5.90;;;;;;;;;;109623;1251;33782;-37
2022/07/22 00:18:21;;;;;;;9.10;5.90;;;;;;;;;;109569;1250;33857;-37
2022/07/22 00:20:57;;;;;;;7.40;5.70;;;;;;;;;;109590;1252;33603;-38
2022/07/22 00:23:33;;;;;;;7.50;5.30;;;;;;;;;;109565;1257;33596;-38
2022/07/22 00:26:07;;;;;;;7.00;5.60;;;;;;;;;;109599;1251;33949;-37
2022/07/22 00:28:40;;;;;;;8.50;5.70;;;;;;;;;;109592;1251;33906;-38
2022/07/22 00:31:12;;;;;;;10.10;6.00;;;;;;;;;;109586;1251;33113;-37
2022/07/22 00:33:45;;;;;;;9.20;5.80;;;;;;;;;;109602;1251;33625;-37
2022/07/22 00:36:18;;;;;;;8.10;5.40;;;;;;;;;;109575;1251;33876;-37
2022/07/22 00:38:51;;;;;;;8.40;5.70;;;;;;;;;;109569;1251;33704;-38
2022/07/22 00:41:22;;;;;;;;;;;;;;;;;;109624;1251;34201;-37
2022/07/22 00:44:03;;;;;;;7.30;5.30;;;;;;;;;;109615;1252;33471;-37
2022/07/22 00:46:42;;;;;;;7.50;5.20;;;;;;;;;;109602;1251;33329;-38
2022/07/22 00:49:14;;;;;;;8.80;5.40;;;;;;;;;;109571;1251;33736;-38
2022/07/22 00:51:48;;;;;;;7.10;5.30;;;;;;;;;;109597;1251;33711;-37
2022/07/22 00:54:20;;;;;;;7.80;5.60;;;;;;;;;;109633;1251;33777;-37
2022/07/22 00:56:55;;;;;;;7.00;5.50;;;;;;;;;;109577;1251;33739;-37
2022/07/22 00:59:27;;;;;;;7.10;5.30;;;;;;;;;;109569;1252;33861;-37
2022/07/22 01:02:00;;;;;;;7.60;4.90;;;;;;;;;;109597;1251;33680;-37
2022/07/22 01:04:33;;;;;;;6.90;4.90;;;;;;;;;;109626;1251;33647;-37
2022/07/22 01:07:06;;;;;;;6.80;4.80;;;;;;;;;;109550;1256;33418;-37
2022/07/22 01:09:44;;;;;;;5.80;4.60;;;;;;;;;;109592;1257;33883;-37
2022/07/22 01:12:17;;;;;;;6.90;5.70;;;;;;;;;;109611;1251;33605;-37
2022/07/22 01:14:51;;;;;;;7.50;5.50;;;;;;;;;;109578;1251;34109;-37
2022/07/22 01:17:24;;;;;;;7.90;5.30;;;;;;;;;;109587;1257;33801;-37
2022/07/22 01:20:00;;;;;;;6.20;5.00;;;;;;;;;;109597;1251;33836;-37
2022/07/22 01:22:32;;;;;;;7.90;5.20;;;;;;;;;;109401;1257;33648;-38
2022/07/22 01:25:04;;;;;;;;;;;;;;;;;;109596;1251;33640;-38
2022/07/22 01:27:37;;;;;;;7.90;5.30;;;;;;;;;;109610;1251;33757;-37
2022/07/22 01:30:17;;;;;;;7.10;5.10;;;;;;;;;;109596;1256;34092;-37
2022/07/22 01:32:52;;;;;;;7.00;4.80;;;;;;;;;;109604;1249;33685;-37
2022/07/22 01:35:30;;;;;;;6.50;4.80;;;;;;;;;;109582;1251;33647;-37
2022/07/22 01:38:02;;;;;;;7.30;5.40;;;;;;;;;;109385;1257;33708;-37
2022/07/22 01:40:38;;;;;;;8.30;5.60;;;;;;;;;;109581;1252;33358;-37
2022/07/22 01:43:11;;;;;;;8.20;5.10;;;;;;;;;;109625;1252;33740;-37
2022/07/22 01:45:43;;;;;;;7.80;5.10;;;;;;;;;;109618;1252;35405;-38
2022/07/22 01:48:18;;;;;;;8.30;5.70;;;;;;;;;;109607;1257;34134;-37
2022/07/22 01:50:51;;;;;;;7.60;5.00;;;;;;;;;;109605;1252;33941;-37
2022/07/22 01:53:24;;;;;;;7.50;5.50;;;;;;;;;;109576;1254;33752;-37
2022/07/22 01:55:56;;;;;;;7.00;5.10;;;;;;;;;;109572;1251;33774;-37
2022/07/22 01:58:29;;;;;;;7.20;5.30;;;;;;;;;;109611;1257;33865;-37
2022/07/22 02:01:02;;;;;;;7.90;5.00;;;;;;;;;;109616;1252;33989;-38
2022/07/22 02:03:34;;;;;;;7.20;5.60;;;;;;;;;;109589;1252;33316;-38
2022/07/22 02:06:08;;;;;;;7.20;5.40;;;;;;;;;;109610;1251;33666;-37
2022/07/22 02:08:40;;;;;;;8.80;5.00;;;;;;;;;;109608;1256;33625;-38
2022/07/22 02:11:16;;;;;;;7.10;5.30;;;;;;;;;;109400;1256;34013;-38
2022/07/22 02:13:48;;;;;;;7.50;5.30;;;;;;;;;;109594;1251;33905;-38
2022/07/22 02:16:21;;;;;;;7.10;5.60;;;;;;;;;;109627;1252;33825;-38
2022/07/22 02:18:57;;;;;;;7.10;5.10;;;;;;;;;;109615;1257;33968;-38
2022/07/22 02:21:30;;;;;;;9.10;5.10;;;;;;;;;;109563;1254;33807;-37
2022/07/22 02:24:04;;;;;;;;;;;;;;;;;;109597;1256;33843;-37
2022/07/22 02:26:36;;;;;;;7.80;5.60;;;;;;;;;;109610;1251;33164;-37
2022/07/22 02:29:09;;;;;;;8.00;5.70;;;;;;;;;;109595;1257;34175;-37
2022/07/22 02:31:42;;;;;;;7.70;5.60;;;;;;;;;;109600;1257;33940;-37
2022/07/22 02:34:17;;;;;;;8.80;5.70;;;;;;;;;;109596;1251;33861;-37
2022/07/22 02:36:50;;;;;;;7.90;5.50;;;;;;;;;;109609;1251;34076;-37
2022/07/22 02:39:22;;;;;;;7.50;5.60;;;;;;;;;;109587;1251;33699;-37
2022/07/22 02:41:55;;;;;;;7.00;5.50;;;;;;;;;;109611;1254;33608;-37
2022/07/22 02:44:27;;;;;;;7.60;5.30;;;;;;;;;;109617;1251;33743;-37
2022/07/22 02:47:02;;;;;;;6.70;5.70;;;;;;;;;;109603;1251;33101;-37
2022/07/22 02:49:34;;;;;;;7.50;5.50;;;;;;;;;;109617;1254;33378;-37
2022/07/22 02:52:10;;;;;;;8.20;5.70;;;;;;;;;;109596;1254;33684;-37
2022/07/22 02:54:46;;;;;;;7.90;5.70;;;;;;;;;;109593;1254;34057;-38
2022/07/22 02:57:19;;;;;;;6.80;5.50;;;;;;;;;;109590;1254;34044;-37
2022/07/22 02:59:52;;;;;;;6.80;5.50;;;;;;;;;;109648;1254;33709;-37
2022/07/22 03:02:25;;;;;;;10.10;5.80;;;;;;;;;;109594;1254;33843;-36
2022/07/22 03:05:00;;;;;;;7.80;5.60;;;;;;;;;;109605;1257;33936;-37
2022/07/22 03:07:33;;;;;;;6.70;5.20;;;;;;;;;;109592;1251;33172;-37
2022/07/22 03:10:10;;;;;;;9.00;5.90;;;;;;;;;;109607;1251;34340;-37
2022/07/22 03:12:44;;;;;;;7.20;5.40;;;;;;;;;;109632;1256;34049;-37
2022/07/22 03:15:16;;;;;;;7.10;5.30;;;;;;;;;;109587;1251;33707;-37
2022/07/22 03:17:53;;;;;;;7.80;5.10;;;;;;;;;;109549;1251;33761;-37
2022/07/22 03:20:29;;;;;;;8.40;5.90;;;;;;;;;;109626;1251;33503;-37
2022/07/22 03:23:01;;;;;;;7.30;5.70;;;;;;;;;;109631;1255;33756;-37
2022/07/22 03:25:34;;;;;;;7.60;5.20;;;;;;;;;;109608;1251;33819;-37
2022/07/22 03:28:09;;;;;;;8.70;5.40;;;;;;;;;;109620;1254;33707;-37
2022/07/22 03:30:41;;;;;;;10.00;5.90;;;;;;;;;;109593;1251;34184;-37
2022/07/22 03:33:13;;;;;;;7.10;5.50;;;;;;;;;;109589;1251;33691;-37
2022/07/22 03:35:48;;;;;;;8.10;5.90;;;;;;;;;;109586;1251;34306;-37
2022/07/22 03:38:20;;;;;;;8.60;5.90;;;;;;;;;;109573;1254;34091;-37
2022/07/22 03:40:56;;;;;;;8.50;5.50;;;;;;;;;;109598;1256;33714;-38
2022/07/22 03:43:33;;;;;;;7.70;5.40;;;;;;;;;;109621;1256;33615;-37
2022/07/22 03:46:07;;;;;;;7.40;5.60;;;;;;;;;;109588;1254;33700;-37
2022/07/22 03:48:42;;;;;;;7.80;5.90;;;;;;;;;;109594;1254;34232;-37
2022/07/22 03:51:15;;;;;;;7.60;5.60;;;;;;;;;;109379;1251;33928;-37
2022/07/22 03:53:50;;;;;;;8.80;6.30;;;;;;;;;;109610;1250;33577;-37
2022/07/22 03:56:23;;;;;;;7.00;5.50;;;;;;;;;;109631;1250;33723;-37
2022/07/22 03:58:59;;;;;;;8.20;5.70;;;;;;;;;;109596;1254;33373;-37
2022/07/22 04:01:32;;;;;;;7.00;6.00;;;;;;;;;;109629;1254;33629;-37
2022/07/22 04:04:05;;;;;;;8.10;5.70;;;;;;;;;;109631;1254;33583;-38
2022/07/22 04:06:40;;;;;;;8.70;6.40;;;;;;;;;;109587;1254;33319;-37
2022/07/22 04:09:14;;;;;;;8.10;5.80;;;;;;;;;;109589;1250;33923;-37
2022/07/22 04:11:50;;;;;;;8.40;5.80;;;;;;;;;;109601;1249;33863;-37
2022/07/22 04:14:22;;;;;;;7.30;5.60;;;;;;;;;;109582;1257;34388;-37
2022/07/22 04:16:55;;;;;;;8.90;6.00;;;;;;;;;;109622;1257;33511;-36
2022/07/22 04:19:28;;;;;;;8.10;5.70;;;;;;;;;;109564;1251;33718;-36
2022/07/22 04:22:01;;;;;;;7.40;5.90;;;;;;;;;;109590;1251;33803;-37
2022/07/22 04:24:31;;;;;;;;;;;;;;;;;;109565;1254;33747;-37
2022/07/22 04:27:08;;;;;;;8.10;6.10;;;;;;;;;;109609;1254;34061;-37
2022/07/22 04:29:40;;;;;;;8.30;5.90;;;;;;;;;;109606;1251;33676;-37
2022/07/22 04:32:13;;;;;;;6.60;5.50;;;;;;;;;;109579;1251;33819;-37
2022/07/22 04:34:48;;;;;;;6.70;5.70;;;;;;;;;;109600;1257;34019;-37
2022/07/22 04:37:22;;;;;;;7.40;6.10;;;;;;;;;;109626;1257;33914;-37
2022/07/22 04:39:58;;;;;;;8.20;6.00;;;;;;;;;;109579;1251;33271;-37
2022/07/22 04:42:34;;;;;;;7.70;6.20;;;;;;;;;;109608;1255;34052;-37
2022/07/22 04:45:09;;;;;;;7.10;5.90;;;;;;;;;;109615;1251;33166;-37
2022/07/22 04:47:45;;;;;;;8.70;6.40;;;;;;;;;;109612;1257;33997;-37
2022/07/22 04:50:17;;;;;;;7.80;5.70;;;;;;;;;;109636;1251;33616;-38
2022/07/22 04:52:49;;;;;;;6.80;5.80;;;;;;;;;;109615;1251;34612;-38
2022/07/22 04:55:23;;;;;;;8.70;6.40;;;;;;;;;;109617;1251;33565;-37
2022/07/22 04:57:56;;;;;;;8.30;6.40;;;;;;;;;;109599;1257;33814;-37
2022/07/22 05:00:30;;;;;;;7.80;6.10;;;;;;;;;;109598;1257;33307;-37
2022/07/22 05:03:03;;;;;;;9.90;6.40;;;;;;;;;;109615;1257;33383;-37
2022/07/22 05:05:36;;;;;;;8.10;6.10;;;;;;;;;;109613;1254;34312;-37
2022/07/22 05:08:09;;;;;;;7.70;6.10;;;;;;;;;;109567;1256;33626;-37
2022/07/22 05:10:41;;;;;;;8.10;6.70;;;;;;;;;;109626;1254;33376;-36
2022/07/22 05:13:15;;;;;;;8.10;6.70;;;;;;;;;;109593;1251;33733;-37
2022/07/22 05:15:48;;;;;;;7.40;5.80;;;;;;;;;;109589;1251;33784;-37
2022/07/22 05:18:20;;;;;;;8.00;6.10;;;;;;;;;;109616;1251;34336;-37
2022/07/22 05:20:53;;;;;;;8.80;6.00;;;;;;;;;;109632;1251;33423;-37
2022/07/22 05:23:25;;;;;;;8.10;5.90;;;;;;;;;;109620;1251;33809;-37
2022/07/22 05:25:58;;;;;;;8.50;6.00;;;;;;;;;;109597;1251;33560;-37
2022/07/22 05:28:30;;;;;;;6.50;5.70;;;;;;;;;;109620;1256;33676;-37
2022/07/22 05:31:02;;;;;;;7.50;6.00;;;;;;;;;;109614;1251;34437;-37
2022/07/22 05:33:34;;;;;;;8.40;5.90;;;;;;;;;;109608;1254;33867;-37
2022/07/22 05:36:10;;;;;;;8.30;6.30;;;;;;;;;;109623;1251;34013;-37
2022/07/22 05:38:42;;;;;;;8.90;6.10;;;;;;;;;;109615;1256;33876;-38
2022/07/22 05:41:14;;;;;;;7.40;6.30;;;;;;;;;;109611;1252;33563;-37
2022/07/22 05:43:46;;;;;;;7.70;6.00;;;;;;;;;;109589;1251;34259;-37
2022/07/22 05:46:21;;;;;;;8.10;5.90;;;;;;;;;;109628;1256;33496;-37
2022/07/22 05:48:54;;;;;;;6.90;6.10;;;;;;;;;;109616;1251;33697;-37
2022/07/22 05:51:26;;;;;;;10.10;6.50;;;;;;;;;;109652;1251;33656;-37
2022/07/22 05:53:59;;;;;;;8.80;6.50;;;;;;;;;;109596;1254;33768;-37
2022/07/22 05:56:31;;;;;;;7.70;6.00;;;;;;;;;;109604;1251;34627;-37
2022/07/22 05:59:07;;;;;;;8.00;6.50;;;;;;;;;;109617;1256;34064;-38
2022/07/22 06:01:41;;;;;;;10.70;6.20;;;;;;;;;;109080;1255;708536;-37
2022/07/22 06:04:13;;;;;;;9.40;6.50;;;;;;;;;;109585;1251;33551;-37
2022/07/22 06:06:45;;;;;;;9.00;6.40;;;;;;;;;;109589;1251;33047;-37
2022/07/22 06:09:18;;;;;;;7.30;6.00;;;;;;;;;;109606;1251;34036;-37
2022/07/22 06:11:50;;;;;;;9.50;5.90;;;;;;;;;;109369;1260;33757;-37
2022/07/22 06:14:23;;;;;;;10.00;6.00;;;;;;;;;;109587;1251;33719;-37
2022/07/22 06:16:56;;;;;;;9.10;6.00;;;;;;;;;;109376;1251;33577;-37
2022/07/22 06:19:29;;;;;;;8.30;6.40;;;;;;;;;;109588;1251;33842;-38
2022/07/22 06:22:01;;;;;;;11.40;6.00;;;;;;;;;;109621;1251;33488;-37
2022/07/22 06:24:34;;;;;;;9.10;6.10;;;;;;;;;;109640;1251;33822;-37
2022/07/22 06:27:06;;;;;;;10.20;6.40;;;;;;;;;;109573;1251;33767;-37
2022/07/22 06:29:40;;;;;;;8.40;6.30;;;;;;;;;;109619;1251;33970;-37
2022/07/22 06:32:12;;;;;;;10.70;6.40;;;;;;;;;;109620;1254;33794;-38
2022/07/22 06:34:45;;;;;;;10.00;6.10;;;;;;;;;;109627;1254;34406;-37
2022/07/22 06:37:17;;;;;;;9.20;5.60;;;;;;;;;;109611;1257;33744;-37
2022/07/22 06:39:49;;;;;;;8.30;5.60;;;;;;;;;;109599;1251;33425;-37
2022/07/22 06:42:22;;;;;;;9.30;6.40;;;;;;;;;;109624;1251;33707;-37
2022/07/22 06:44:57;;;;;;;10.50;5.60;;;;;;;;;;109611;1251;33720;-37
2022/07/22 06:47:30;;;;;;;9.20;5.50;;;;;;;;;;109606;1251;34204;-37
2022/07/22 06:50:07;;;;;;;8.40;5.70;;;;;;;;;;109617;1252;33579;-38
2022/07/22 06:52:42;;;;;;;11.10;6.00;;;;;;;;;;109607;1251;33790;-37
2022/07/22 06:55:15;;;;;;;10.60;6.30;;;;;;;;;;109629;1251;33828;-37
2022/07/22 06:57:47;;;;;;;8.70;6.50;;;;;;;;;;109593;1251;33709;-37
2022/07/22 07:00:20;;;;;;;10.30;6.00;;;;;;;;;;109611;1257;33750;-37
2022/07/22 07:02:54;;;;;;;;;;;;;;;;;;109628;1251;33726;-38
2022/07/22 07:05:27;;;;;;;;;;;;;;;;;;109536;1256;33910;-38
2022/07/22 07:08:02;;;;;;;8.70;5.80;;;;;;;;;;109376;1251;34064;-38
2022/07/22 07:10:35;;;;;;;10.10;6.30;;;;;;;;;;109613;1251;33766;-38
2022/07/22 07:13:07;;;;;;;10.20;6.30;;;;;;;;;;109585;1251;34207;-37
2022/07/22 07:15:40;;;;;;;8.20;6.00;;;;;;;;;;109640;1251;33644;-37
2022/07/22 07:18:12;;;;;;;9.30;5.80;;;;;;;;;;109623;1251;33593;-37
2022/07/22 07:20:46;;;;;;;8.50;5.90;;;;;;;;;;109625;1250;33411;-37
2022/07/22 07:23:18;;;;;;;6.50;5.60;;;;;;;;;;109612;1257;33492;-37
2022/07/22 07:25:51;;;;;;;9.80;5.90;;;;;;;;;;109626;1251;33938;-37
2022/07/22 07:28:24;;;;;;;9.80;6.20;;;;;;;;;;109615;1251;33624;-37
2022/07/22 07:30:58;;;;;;;12.50;6.50;;;;;;;;;;109618;1251;33332;-38
2022/07/22 07:33:31;;;;;;;9.40;6.40;;;;;;;;;;109616;1251;33867;-38
2022/07/22 07:36:04;;;;;;;9.80;7.00;;;;;;;;;;109612;1251;33038;-37
2022/07/22 07:38:39;;;;;;;8.40;6.40;;;;;;;;;;109602;1256;33767;-39
2022/07/22 07:41:12;;;;;;;10.30;6.70;;;;;;;;;;109607;1251;33707;-38
2022/07/22 07:43:46;;;;;;;;;;;;;;;;;;109616;1251;34065;-37
2022/07/22 07:46:18;;;;;;;11.00;7.10;;;;;;;;;;109611;1251;33058;-38
2022/07/22 07:48:51;;;;;;;10.70;7.70;;;;;;;;;;109599;1256;33821;-37
2022/07/22 07:51:23;;;;;;;10.80;7.20;;;;;;;;;;109604;1251;33951;-37
2022/07/22 07:53:59;;;;;;;11.10;7.70;;;;;;;;;;109630;1251;34163;-37
2022/07/22 07:56:32;;;;;;;10.80;8.00;;;;;;;;;;109615;1251;33043;-38
2022/07/22 07:59:07;;;;;;;10.10;7.80;;;;;;;;;;109612;1251;33471;-37
2022/07/22 08:01:42;;;;;;;10.10;8.10;;;;;;;;;;109639;1251;33689;-38
2022/07/22 08:04:15;;;;;;;10.20;8.00;;;;;;;;;;109653;1252;33812;-38
2022/07/22 08:06:48;;;;;;;14.20;8.70;;;;;;;;;;109622;1257;33580;-38
2022/07/22 08:09:23;;;;;;;10.60;8.60;;;;;;;;;;109588;1256;33952;-37
2022/07/22 08:12:00;;;;;;;11.80;8.30;;;;;;;;;;109605;1256;33331;-37
2022/07/22 08:14:33;;;;;;;11.50;9.10;;;;;;;;;;109625;1257;33316;-38
2022/07/22 08:17:06;;;;;;;11.30;9.30;;;;;;;;;;109659;1241;33765;-35
2022/07/22 08:19:41;;;;;;;10.50;9.30;;;;;;;;;;109300;1260;34320;-36
2022/07/22 08:22:17;;;;;;;11.50;8.90;;;;;;;;;;109377;1251;34182;-35
2022/07/22 08:24:50;;;;;;;9.90;8.30;;;;;;;;;;109127;1251;34208;-38
2022/07/22 08:27:21;;;;;;;;;;;;;;;;;;109197;1253;33181;-36
2022/07/22 08:29:54;;;;;;;11.70;8.90;;;;;;;;;;109194;1259;33866;-33
2022/07/22 08:32:27;;;;;;;9.70;8.70;;;;;;;;;;109186;1252;33739;-34
2022/07/22 08:35:00;;;;;;;10.20;8.80;;;;;;;;;;109270;1252;33365;-34
2022/07/22 08:37:39;;;;;;;11.60;8.20;;;;;;;;;;109341;1251;34255;-37
2022/07/22 08:40:15;;;;;;;10.50;8.20;;;;;;;;;;109366;1250;33516;-35
2022/07/22 08:42:50;;;;;;;9.50;8.60;;;;;;;;;;109340;1251;33664;-36
2022/07/22 08:45:23;;;;;;;11.20;8.50;;;;;;;;;;109362;1250;33684;-36
2022/07/22 08:47:56;;;;;;;;;;;;;;;;;;109406;1251;33968;-37
2022/07/22 08:50:34;;;;;;;12.10;9.30;;;;;;;;;;109360;1258;33692;-35
2022/07/22 08:53:11;;;;;;;10.20;8.60;;;;;;;;;;109248;1254;33450;-35
2022/07/22 08:55:49;;;;;;;10.10;9.10;;;;;;;;;;109228;1253;33912;-34
2022/07/22 08:58:25;;;;;;;11.00;9.20;;;;;;;;;;109156;1252;33707;-35
2022/07/22 09:01:11;;;;;;;9.70;8.50;;;;;;;;;;109142;1254;33488;-35
2022/07/22 09:03:56;;;;;;;10.90;9.20;;;;;;;;;;109190;1259;33964;-35
2022/07/22 09:06:34;;;;;;;11.50;9.00;;;;;;;;;;108977;1251;33623;-37
2022/07/22 09:09:09;;;;;;;9.50;8.50;;;;;;;;;;109224;1251;33323;-36
2022/07/22 09:11:44;;;;;;;9.70;8.20;;;;;;;;;;109161;1251;33300;-36
2022/07/22 09:14:19;;;;;;;10.30;8.60;;;;;;;;;;109161;1254;34076;-36
2022/07/22 09:16:54;;;;;;;9.90;9.00;;;;;;;;;;109162;1260;33708;-37
2022/07/22 09:19:33;;;;;;;10.60;9.60;;;;;;;;;;109159;1259;34212;-37
2022/07/22 09:22:06;;;;;;;9.90;8.90;;;;;;;;;;109175;1251;33848;-37
2022/07/22 09:24:39;;;;;;;9.80;8.20;;;;;;;;;;109095;1254;33772;-37
2022/07/22 09:27:25;;;;;;;9.70;8.70;;;;;;;;;;109129;1254;33568;-37
2022/07/22 09:30:01;;;;;;;10.30;8.70;;;;;;;;;;109233;1259;33760;-37
2022/07/22 09:32:43;;;;;;;10.10;8.60;;;;;;;;;;109203;1254;33699;-37
2022/07/22 09:35:18;;;;;;;11.00;9.20;;;;;;;;;;109179;1254;33976;-36
2022/07/22 09:38:00;;;;;;;9.30;8.40;;;;;;;;;;109184;1253;34259;-37
2022/07/22 09:40:35;;;;;;;10.40;9.10;;;;;;;;;;109111;1251;34159;-37
2022/07/22 09:43:12;;;;;;;10.20;8.50;;;;;;;;;;109242;1253;33613;-36
2022/07/22 09:45:56;;;;;;;9.70;8.70;;;;;;;;;;109229;1254;33516;-36
2022/07/22 09:48:30;;;;;;;11.30;9.10;;;;;;;;;;109234;1254;33301;-37
2022/07/22 09:51:03;;;;;;;9.60;8.60;;;;;;;;;;109221;1254;34414;-37
2022/07/22 09:53:36;;;;;;;9.20;8.30;;;;;;;;;;109189;1254;33594;-37
2022/07/22 09:56:11;;;;;;;10.10;8.50;;;;;;;;;;109238;1259;34020;-36
2022/07/22 09:58:45;;;;;;;10.30;9.20;;;;;;;;;;109280;1260;33568;-36
2022/07/22 10:01:16;;;;;;;;;;;;;;;;;;109205;1254;33357;-41
2022/07/22 10:03:53;;;;;;;10.00;8.90;;;;;;;;;;109351;1258;33371;-37
2022/07/22 10:06:28;;;;;;;9.80;8.80;;;;;;;;;;109175;1257;33950;-37
2022/07/22 10:09:01;;;;;;;10.50;9.40;;;;;;;;;;109257;1257;33467;-42
2022/07/22 10:11:39;;;;;;;10.40;9.30;;;;;;;;;;109370;1251;33137;-42
2022/07/22 10:14:12;;;;;;;10.20;9.20;;;;;;;;;;109377;1260;33339;-43
2022/07/22 10:16:45;;;;;;;10.40;9.40;;;;;;;;;;109350;1250;33723;-42
2022/07/22 10:19:21;;;;;;;10.70;9.30;;;;;;;;;;109173;1254;33609;-42
2022/07/22 10:22:00;;;;;;;9.80;8.80;;;;;;;;;;109165;1259;33858;-39
2022/07/22 10:24:35;;;;;;;10.80;9.30;;;;;;;;;;109168;1257;33358;-38
2022/07/22 10:27:08;;;;;;;9.40;8.40;;;;;;;;;;109186;1254;34176;-37
2022/07/22 10:29:44;;;;;;;;;;;;;;;;;;109224;1254;34044;-41
2022/07/22 10:32:30;;;;;;;9.70;8.70;;;;;;;;;;109365;1250;34333;-37
2022/07/22 10:35:28;;;;;;;9.70;8.50;;;;;;;;;;109351;1259;33993;-39
2022/07/22 10:38:05;;;;;;;10.20;8.50;;;;;;;;;;109360;1251;33880;-39
2022/07/22 10:40:56;;;;;;;10.30;9.20;;;;;;;;;;109374;1260;33367;-39
2022/07/22 10:43:31;;;;;;;9.60;8.60;;;;;;;;;;109383;1250;33386;-36
2022/07/22 10:46:06;;;;;;;9.70;8.80;;;;;;;;;;109392;1251;33817;-38
2022/07/22 10:48:51;;;;;;;9.40;8.40;;;;;;;;;;109322;1250;34190;-43
2022/07/22 10:51:26;;;;;;;9.90;8.90;;;;;;;;;;109259;1252;33045;-35
2022/07/22 10:54:00;;;;;;;9.40;8.50;;;;;;;;;;109205;1254;33518;-39
2022/07/22 10:56:35;;;;;;;9.90;8.90;;;;;;;;;;109235;1259;34067;-40
2022/07/22 10:59:16;;;;;;;9.20;8.30;;;;;;;;;;109215;1251;33296;-36
2022/07/22 11:01:58;;;;;;;10.10;9.00;;;;;;;;;;109213;1257;34238;-38
2022/07/22 11:04:31;;;;;;;9.80;8.90;;;;;;;;;;109255;1251;33396;-39
2022/07/22 11:07:11;;;;;;;11.70;9.20;;;;;;;;;;109361;1251;33732;-41
2022/07/22 11:09:47;;;;;;;9.80;8.80;;;;;;;;;;109320;1259;33812;-40
2022/07/22 11:12:21;;;;;;;10.30;9.20;;;;;;;;;;109350;1256;34356;-40
2022/07/22 11:14:54;;;;;;;10.50;9.50;;;;;;;;;;109345;1259;33958;-40
2022/07/22 11:17:25;;;;;;;;;;;;;;;;;;109349;1251;33731;-40
2022/07/22 11:20:00;;;;;;;10.60;9.50;;;;;;;;;;109348;1251;33642;-41
2022/07/22 11:22:38;;;;;;;10.20;9.20;;;;;;;;;;109345;1251;33755;-41
2022/07/22 11:25:13;;;;;;;10.50;9.40;;;;;;;;;;109341;1251;33781;-40
2022/07/22 11:27:52;;;;;;;10.30;9.30;;;;;;;;;;109344;1259;34154;-40
2022/07/22 11:30:25;;;;;;;10.20;9.20;;;;;;;;;;109367;1250;33717;-41
2022/07/22 11:32:57;;;;;;;9.60;8.60;;;;;;;;;;109366;1260;33965;-40
2022/07/22 11:35:29;;;;;;;10.60;9.50;;;;;;;;;;109347;1251;33877;-40
2022/07/22 11:38:02;;;;;;;10.20;8.70;;;;;;;;;;109315;1251;33590;-41
2022/07/22 11:40:39;;;;;;;9.80;8.80;;;;;;;;;;109178;1259;34175;-40
2022/07/22 11:43:11;;;;;;;10.40;9.30;;;;;;;;;;109182;1252;33571;-40
2022/07/22 11:45:59;;;;;;;10.70;9.40;;;;;;;;;;109193;1257;33795;-40
2022/07/22 11:48:32;;;;;;;10.50;9.30;;;;;;;;;;109211;1257;33885;-42
2022/07/22 11:51:10;;;;;;;9.80;8.90;;;;;;;;;;109176;1251;33605;-40
2022/07/22 11:53:43;;;;;;;10.60;9.40;;;;;;;;;;109220;1253;33739;-41
2022/07/22 11:56:18;;;;;;;10.00;8.90;;;;;;;;;;109190;1253;33717;-34
2022/07/22 11:58:54;;;;;;;11.00;9.90;;;;;;;;;;109180;1251;34455;-36
2022/07/22 12:01:28;;;;;;;10.90;9.70;;;;;;;;;;109202;1254;33632;-34
2022/07/22 12:04:06;;;;;;;9.50;8.60;;;;;;;;;;109186;1259;33380;-34
2022/07/22 12:06:44;;;;;;;10.20;9.20;;;;;;;;;;109174;1251;33752;-34
2022/07/22 12:09:21;;;;;;;10.40;9.30;;;;;;;;;;109175;1259;33690;-35
2022/07/22 12:11:58;;;;;;;10.10;9.20;;;;;;;;;;109195;1257;34251;-39
2022/07/22 12:14:34;;;;;;;9.80;8.90;;;;;;;;;;109183;1259;33718;-38
2022/07/22 12:17:10;;;;;;;9.90;8.50;;;;;;;;;;109234;1259;33861;-36
2022/07/22 12:19:44;;;;;;;10.00;9.10;;;;;;;;;;109375;1253;33764;-39
2022/07/22 12:22:24;;;;;;;11.10;9.90;;;;;;;;;;109372;1251;33799;-38
2022/07/22 12:25:04;;;;;;;9.50;8.60;;;;;;;;;;109372;1257;33116;-39
2022/07/22 12:27:37;;;;;;;9.60;8.70;;;;;;;;;;109355;1261;33303;-36
2022/07/22 12:30:15;;;;;;;;;;;;;;;;;;109412;1250;33852;-38
2022/07/22 12:32:51;;;;;;;9.60;8.60;;;;;;;;;;109353;1257;33275;-35
2022/07/22 12:35:24;;;;;;;9.80;8.70;;;;;;;;;;109393;1251;33759;-39
2022/07/22 12:37:55;;;;;;;;;;;;;;;;;;109403;1257;33493;-39
2022/07/22 12:40:30;;;;;;;9.40;8.50;;;;;;;;;;109393;1257;33398;-36
2022/07/22 12:43:07;;;;;;;11.60;9.50;;;;;;;;;;109384;1252;33930;-37
2022/07/22 12:45:42;;;;;;;9.40;8.50;;;;;;;;;;109388;1257;33240;-34
2022/07/22 12:48:15;;;;;;;9.50;8.60;;;;;;;;;;109382;1253;33859;-33
2022/07/22 12:50:57;;;;;;;9.20;8.30;;;;;;;;;;109371;1257;33709;-37
2022/07/22 12:53:32;;;;;;;9.90;8.40;;;;;;;;;;109365;1259;34077;-42
2022/07/22 12:56:10;;;;;;;9.50;8.60;;;;;;;;;;109346;1257;33797;-39
2022/07/22 12:58:43;;;;;;;9.30;8.40;;;;;;;;;;109358;1251;33894;-35
2022/07/22 13:01:21;;;;;;;9.80;8.70;;;;;;;;;;109400;1257;33121;-35
2022/07/22 13:03:55;;;;;;;9.40;8.50;;;;;;;;;;109354;1260;33669;-38
2022/07/22 13:06:27;;;;;;;8.80;8.00;;;;;;;;;;109378;1257;34072;-37
2022/07/22 13:09:00;;;;;;;9.50;8.50;;;;;;;;;;109385;1255;33864;-38
2022/07/22 13:11:43;;;;;;;8.70;7.90;;;;;;;;;;109360;1251;33121;-40
2022/07/22 13:14:16;;;;;;;10.00;8.20;;;;;;;;;;109369;1260;33480;-38
2022/07/22 13:16:49;;;;;;;8.60;7.80;;;;;;;;;;109377;1251;33883;-37
2022/07/22 13:19:23;;;;;;;8.90;8.00;;;;;;;;;;109361;1251;34234;-44
2022/07/22 13:21:56;;;;;;;8.40;7.60;;;;;;;;;;109372;1251;33787;-34
2022/07/22 13:24:29;;;;;;;9.20;8.30;;;;;;;;;;109379;1251;33561;-33
2022/07/22 13:27:01;;;;;;;9.60;8.70;;;;;;;;;;109384;1259;33684;-36
2022/07/22 13:29:35;;;;;;;9.00;8.20;;;;;;;;;;109380;1257;34182;-35
2022/07/22 13:32:10;;;;;;;9.30;8.00;;;;;;;;;;109446;1251;33762;-40
2022/07/22 13:34:42;;;;;;;9.20;8.30;;;;;;;;;;109596;1257;33731;-33
2022/07/22 13:37:15;;;;;;;10.40;8.90;;;;;;;;;;109495;1257;33589;-35
2022/07/22 13:39:48;;;;;;;9.50;8.50;;;;;;;;;;109358;1251;33947;-36
2022/07/22 13:42:20;;;;;;;8.80;7.90;;;;;;;;;;109380;1257;34224;-33
2022/07/22 13:44:54;;;;;;;11.30;8.10;;;;;;;;;;109346;1257;33844;-34
2022/07/22 13:47:27;;;;;;;8.50;7.70;;;;;;;;;;109371;1251;33894;-36
2022/07/22 13:50:01;;;;;;;10.00;9.00;;;;;;;;;;109377;1251;34254;-36
2022/07/22 13:52:34;;;;;;;9.40;7.90;;;;;;;;;;109346;1257;33105;-35
2022/07/22 13:55:06;;;;;;;;;;;;;;;;;;109395;1251;34068;-35
2022/07/22 13:57:43;;;;;;;9.00;8.10;;;;;;;;;;109352;1251;33395;-36
2022/07/22 14:00:21;;;;;;;8.80;7.90;;;;;;;;;;109362;1260;34172;-35
2022/07/22 14:02:53;;;;;;;8.80;7.90;;;;;;;;;;109090;1250;429721;-33
2022/07/22 14:05:29;;;;;;;9.80;8.90;;;;;;;;;;109367;1257;33516;-32
2022/07/22 14:08:05;;;;;;;9.30;8.50;;;;;;;;;;109365;1251;33441;-33
2022/07/22 14:10:37;;;;;;;9.80;8.90;;;;;;;;;;109362;1251;33734;-36
2022/07/22 14:13:13;;;;;;;10.20;9.30;;;;;;;;;;109415;1251;34271;-36
2022/07/22 14:15:45;;;;;;;9.90;9.00;;;;;;;;;;109371;1251;33979;-36
2022/07/22 14:18:18;;;;;;;9.80;8.90;;;;;;;;;;109367;1260;33595;-36
2022/07/22 14:20:50;;;;;;;9.10;8.30;;;;;;;;;;109405;1250;33691;-34
2022/07/22 14:23:25;;;;;;;9.70;8.70;;;;;;;;;;109380;1251;33969;-33
2022/07/22 14:25:59;;;;;;;10.40;9.40;;;;;;;;;;109400;1251;33603;-36
2022/07/22 14:28:31;;;;;;;10.60;9.50;;;;;;;;;;109382;1260;33428;-36
2022/07/22 14:31:06;;;;;;;9.90;9.00;;;;;;;;;;109381;1260;33817;-36
2022/07/22 14:33:39;;;;;;;9.20;8.30;;;;;;;;;;109396;1257;33851;-36
2022/07/22 14:36:12;;;;;;;9.40;8.50;;;;;;;;;;109397;1251;33561;-36
2022/07/22 14:38:44;;;;;;;9.50;8.60;;;;;;;;;;109406;1251;33829;-35
2022/07/22 14:41:17;;;;;;;10.60;9.40;;;;;;;;;;109373;1257;33296;-36
2022/07/22 14:43:50;;;;;;;10.80;9.10;;;;;;;;;;109392;1250;33778;-37
2022/07/22 14:46:21;;;;;;;;;;;;;;;;;;109393;1251;33673;-37
2022/07/22 14:48:53;;;;;;;10.60;9.50;;;;;;;;;;109403;1251;33358;-37
2022/07/22 14:51:28;;;;;;;10.50;9.50;;;;;;;;;;109405;1251;33893;-37
2022/07/22 14:54:01;;;;;;;10.90;9.80;;;;;;;;;;109397;1260;33873;-37
2022/07/22 14:56:34;;;;;;;10.20;9.10;;;;;;;;;;109415;1251;33531;-37
2022/07/22 14:59:06;;;;;;;10.30;9.30;;;;;;;;;;109416;1252;33187;-37
2022/07/22 15:01:43;;;;;;;10.50;9.50;;;;;;;;;;109460;1251;34229;-37
2022/07/22 15:04:15;;;;;;;9.90;8.90;;;;;;;;;;109406;1251;33858;-37
2022/07/22 15:06:47;;;;;;;10.20;9.20;;;;;;;;;;109398;1260;33970;-37
2022/07/22 15:09:20;;;;;;;9.90;8.70;;;;;;;;;;109377;1251;33531;-37
2022/07/22 15:11:52;;;;;;;;;;;;;;;;;;109402;1251;33833;-37
2022/07/22 15:14:24;;;;;;;10.20;8.50;;;;;;;;;;109386;1259;34259;-37